createdAt,value
2023-01-19T00:02:34.392Z,75.82
2023-01-19T00:07:39.085Z,75.56
2023-01-19T00:12:46.524Z,75.78
2023-01-19T00:17:53.542Z,75.81
2023-01-19T00:22:59.200Z,76.34
2023-01-19T00:28:07.684Z,75.87
2023-01-19T00:33:18.966Z,76.34
2023-01-19T00:38:24.818Z,75.88
2023-01-19T00:43:30.709Z,76.11
2023-01-19T00:48:34.491Z,76.24
2023-01-19T00:53:40.811Z,76.07
2023-01-19T00:58:48.778Z,76.42
2023-01-19T01:03:55.059Z,76.10
2023-01-19T01:08:59.698Z,76.08
2023-01-19T01:14:03.640Z,75.72
2023-01-19T01:19:07.784Z,75.73
2023-01-19T01:24:13.046Z,75.82
2023-01-19T01:29:17.822Z,75.76
2023-01-19T01:34:21.844Z,75.90
2023-01-19T01:39:26.667Z,76.12
2023-01-19T01:45:26.782Z,76.00
2023-01-19T01:50:39.221Z,76.00
2023-01-19T01:55:49.926Z,76.33
2023-01-19T02:01:16.386Z,76.44
2023-01-19T02:06:24.552Z,76.10
2023-01-19T02:11:51.015Z,76.30
2023-01-19T02:16:57.374Z,76.22
2023-01-19T02:22:23.099Z,76.43
2023-01-19T02:27:29.123Z,76.31
2023-01-19T02:32:35.602Z,76.46
2023-01-19T02:37:42.968Z,76.05
2023-01-19T02:42:55.231Z,75.93
2023-01-19T02:47:59.061Z,75.99
2023-01-19T02:53:30.101Z,76.19
2023-01-19T02:58:58.489Z,75.85
2023-01-19T03:04:12.949Z,76.54
2023-01-19T03:09:32.005Z,76.15
2023-01-19T03:14:49.821Z,75.71
2023-01-19T03:19:55.035Z,75.69
2023-01-19T03:25:05.802Z,75.73
2023-01-19T03:30:21.542Z,76.12
2023-01-19T03:35:32.846Z,76.30
2023-01-19T03:41:38.913Z,75.86
2023-01-19T03:46:45.312Z,75.94
2023-01-19T03:51:49.161Z,75.94
2023-01-19T03:56:54.759Z,75.84
2023-01-19T04:02:01.867Z,75.93
2023-01-19T04:07:05.736Z,76.03
2023-01-19T04:12:12.296Z,75.76
2023-01-19T04:17:17.610Z,75.58
2023-01-19T04:22:24.048Z,75.60
2023-01-19T04:27:29.522Z,75.73
2023-01-19T04:32:35.762Z,75.40
2023-01-19T04:37:39.562Z,75.12
2023-01-19T04:42:47.802Z,75.63
2023-01-19T04:47:53.002Z,75.27
2023-01-19T04:52:58.088Z,75.19
2023-01-19T04:58:04.259Z,75.00
2023-01-19T05:03:08.218Z,75.40
2023-01-19T05:08:14.056Z,75.12
2023-01-19T05:13:18.870Z,75.33
2023-01-19T05:18:22.776Z,75.21
2023-01-19T05:23:27.244Z,75.09
2023-01-19T05:28:32.620Z,74.82
2023-01-19T05:33:36.438Z,74.96
2023-01-19T05:38:41.251Z,75.17
2023-01-19T05:43:51.915Z,74.99
2023-01-19T05:48:56.765Z,75.02
2023-01-19T05:54:04.268Z,74.71
2023-01-19T05:59:09.508Z,74.69
2023-01-19T06:04:15.755Z,74.39
2023-01-19T06:09:20.408Z,74.66
2023-01-19T06:14:25.244Z,74.83
2023-01-19T06:19:30.119Z,75.03
2023-01-19T06:24:34.844Z,74.76
2023-01-19T06:29:39.458Z,74.72
2023-01-19T06:34:49.038Z,74.40
2023-01-19T06:39:55.131Z,74.69
2023-01-19T06:44:59.988Z,74.49
2023-01-19T06:50:06.150Z,74.36
2023-01-19T06:55:11.699Z,74.59
2023-01-19T07:00:18.791Z,74.74
2023-01-19T07:05:24.184Z,74.45
2023-01-19T07:11:24.857Z,74.48
2023-01-19T07:15:52.627Z,74.24
2023-01-19T07:20:58.741Z,74.21
2023-01-19T07:26:06.807Z,74.25
2023-01-19T07:31:13.191Z,74.35
2023-01-19T07:36:17.028Z,74.19
2023-01-19T07:41:22.215Z,74.24
2023-01-19T07:46:26.112Z,73.98
2023-01-19T07:51:31.025Z,74.00
2023-01-19T07:56:36.397Z,73.84
2023-01-19T08:01:43.670Z,73.81
2023-01-19T08:06:49.054Z,74.05
2023-01-19T08:11:56.271Z,74.01
2023-01-19T08:17:04.955Z,73.97
2023-01-19T08:22:08.802Z,74.09
2023-01-19T08:27:13.481Z,73.92
2023-01-19T08:32:17.704Z,74.15
2023-01-19T08:37:26.871Z,73.63
2023-01-19T08:42:33.126Z,74.04
2023-01-19T08:47:37.894Z,73.99
2023-01-19T08:52:44.062Z,73.99
2023-01-19T08:57:51.542Z,74.00
2023-01-19T09:02:57.149Z,73.97
2023-01-19T09:08:02.042Z,73.70
2023-01-19T09:13:09.018Z,73.81
2023-01-19T09:18:15.870Z,73.85
2023-01-19T09:23:24.123Z,73.60
2023-01-19T09:28:30.003Z,73.70
2023-01-19T09:33:35.443Z,73.88
2023-01-19T09:38:41.647Z,73.88
2023-01-19T09:44:01.097Z,73.84
2023-01-19T09:49:16.626Z,73.78
2023-01-19T09:54:31.315Z,73.93
2023-01-19T09:59:36.524Z,73.77
2023-01-19T10:05:03.344Z,73.71
2023-01-19T10:10:27.295Z,73.79
2023-01-19T10:15:42.000Z,74.20
2023-01-19T10:20:54.432Z,73.89
2023-01-19T10:26:05.060Z,74.02
2023-01-19T10:31:10.746Z,74.19
2023-01-19T10:36:34.570Z,74.01
2023-01-19T10:41:38.285Z,74.03
2023-01-19T10:46:50.032Z,73.78
2023-01-19T10:51:57.006Z,74.20
2023-01-19T10:57:10.512Z,74.17
2023-01-19T11:02:32.751Z,73.96
2023-01-19T11:07:38.158Z,73.56
2023-01-19T11:13:13.374Z,73.88
2023-01-19T11:18:40.179Z,73.84
2023-01-19T11:23:52.181Z,74.09
2023-01-19T11:28:59.466Z,73.83
2023-01-19T11:34:06.936Z,74.20
2023-01-19T11:39:25.119Z,73.84
2023-01-19T11:44:44.212Z,74.39
2023-01-19T11:50:22.589Z,74.30
2023-01-19T11:55:42.016Z,74.44
2023-01-19T12:01:04.173Z,74.50
2023-01-19T12:06:15.229Z,74.34
2023-01-19T12:11:25.359Z,74.43
2023-01-19T12:16:33.714Z,74.26
2023-01-19T12:21:39.269Z,74.51
2023-01-19T12:26:52.206Z,74.31
2023-01-19T12:32:16.064Z,74.36
2023-01-19T12:37:42.909Z,74.27
2023-01-19T12:43:03.688Z,74.29
2023-01-19T12:48:28.220Z,74.42
2023-01-19T12:53:33.153Z,74.53
2023-01-19T12:58:39.070Z,74.56
2023-01-19T13:04:10.048Z,74.78
2023-01-19T13:09:33.010Z,74.90
2023-01-19T13:14:39.269Z,74.62
2023-01-19T13:20:23.900Z,74.61
2023-01-19T13:25:36.954Z,74.57
2023-01-19T13:30:54.243Z,74.46
2023-01-19T13:35:59.720Z,74.74
2023-01-19T13:41:05.506Z,74.65
2023-01-19T13:46:16.006Z,74.66
2023-01-19T13:51:23.123Z,74.52
2023-01-19T13:56:30.229Z,74.64
2023-01-19T14:01:39.596Z,74.52
2023-01-19T14:06:49.766Z,74.65
2023-01-19T14:12:06.674Z,74.76
2023-01-19T14:17:26.999Z,74.91
2023-01-19T14:22:45.093Z,74.71
2023-01-19T14:27:49.043Z,75.05
2023-01-19T14:32:54.852Z,74.75
2023-01-19T14:37:58.851Z,74.67
2023-01-19T14:43:07.714Z,74.68
2023-01-19T14:48:22.780Z,74.84
2023-01-19T14:53:29.285Z,75.32
2023-01-19T14:58:35.920Z,74.71
2023-01-19T15:03:45.352Z,74.76
2023-01-19T15:08:54.633Z,74.98
2023-01-19T15:14:03.985Z,74.76
2023-01-19T15:19:12.506Z,74.82
2023-01-19T15:24:17.923Z,74.97
2023-01-19T15:29:27.683Z,74.84
2023-01-19T15:34:34.075Z,74.81
2023-01-19T15:39:37.937Z,74.93
2023-01-19T15:44:45.716Z,75.20
2023-01-19T15:49:49.433Z,74.77
2023-01-19T15:54:54.347Z,75.09
2023-01-19T15:59:58.125Z,75.07
2023-01-19T16:05:04.849Z,75.02
2023-01-19T16:10:15.017Z,75.32
2023-01-19T16:15:19.651Z,75.17
2023-01-19T16:20:27.850Z,75.27
2023-01-19T16:25:33.347Z,75.46
2023-01-19T16:30:37.280Z,75.47
2023-01-19T16:35:42.430Z,75.21
2023-01-19T16:40:48.569Z,75.39
2023-01-19T16:46:03.461Z,75.27
2023-01-19T16:51:08.113Z,75.45
2023-01-19T16:56:15.410Z,75.41
2023-01-19T17:01:24.223Z,75.37
2023-01-19T17:06:31.250Z,75.13
2023-01-19T17:11:38.349Z,75.42
2023-01-19T17:16:45.769Z,75.18
2023-01-19T17:21:51.083Z,75.15
2023-01-19T17:26:55.938Z,75.43
2023-01-19T17:32:01.065Z,75.47
2023-01-19T17:37:05.215Z,75.33
2023-01-19T17:42:10.734Z,75.14
2023-01-19T17:47:16.247Z,75.42
2023-01-19T17:52:20.560Z,75.35
2023-01-19T17:57:24.523Z,75.43
2023-01-19T18:02:28.550Z,75.17
2023-01-19T18:07:34.153Z,75.48
2023-01-19T18:12:39.682Z,75.52
2023-01-19T18:17:46.641Z,75.89
2023-01-19T18:22:50.417Z,75.48
2023-01-19T18:27:56.659Z,75.79
2023-01-19T18:33:01.235Z,75.49
2023-01-19T18:38:06.092Z,75.71
2023-01-19T18:43:12.179Z,75.49
2023-01-19T18:48:17.994Z,75.77
2023-01-19T18:53:23.319Z,75.80
2023-01-19T18:58:32.401Z,75.57
2023-01-19T19:03:37.848Z,75.69
2023-01-19T19:08:42.115Z,75.84
2023-01-19T19:13:46.524Z,75.91
2023-01-19T19:18:52.300Z,75.78
2023-01-19T19:23:59.765Z,75.67
2023-01-19T19:29:06.948Z,75.58
2023-01-19T19:34:13.172Z,75.60
2023-01-19T19:39:16.897Z,75.77
2023-01-19T19:44:20.914Z,75.48
2023-01-19T19:49:30.591Z,75.76
2023-01-19T19:54:35.990Z,75.66
2023-01-19T19:59:41.568Z,76.15
2023-01-19T20:04:47.348Z,75.94
2023-01-19T20:09:54.286Z,75.91
2023-01-19T20:14:58.790Z,75.78
2023-01-19T20:20:07.036Z,75.78
2023-01-19T20:25:12.547Z,75.76
2023-01-19T20:30:17.277Z,75.77
2023-01-19T20:35:22.170Z,76.04
2023-01-19T20:40:31.397Z,75.90
2023-01-19T20:45:38.004Z,76.05
2023-01-19T20:50:41.811Z,75.85
2023-01-19T20:55:47.398Z,76.16
2023-01-19T21:00:53.599Z,75.87
2023-01-19T21:05:59.674Z,76.15
2023-01-19T21:11:06.147Z,76.07
2023-01-19T21:16:13.736Z,76.00
2023-01-19T21:21:29.735Z,76.28
2023-01-19T21:26:38.477Z,75.87
2023-01-19T21:31:44.979Z,76.12
2023-01-19T21:36:48.751Z,75.83
2023-01-19T21:41:53.526Z,76.23
2023-01-19T21:46:58.891Z,76.15
2023-01-19T21:52:04.140Z,75.99
2023-01-19T21:57:08.074Z,76.13
2023-01-19T22:02:13.883Z,76.38
2023-01-19T22:07:17.679Z,76.41
2023-01-19T22:12:22.532Z,76.32
2023-01-19T22:17:27.801Z,76.12
2023-01-19T22:22:35.597Z,76.11
2023-01-19T22:27:39.396Z,76.42
2023-01-19T22:32:43.328Z,76.12
2023-01-19T22:37:48.664Z,76.53
2023-01-19T22:42:54.238Z,76.62
2023-01-19T22:47:57.997Z,76.27
2023-01-19T22:53:04.122Z,76.09
2023-01-19T22:58:10.331Z,76.41
2023-01-19T23:03:15.108Z,76.25
2023-01-19T23:08:18.936Z,75.77
2023-01-19T23:13:24.839Z,76.34
2023-01-19T23:18:30.042Z,76.00
2023-01-19T23:23:36.883Z,75.99
2023-01-19T23:28:41.713Z,75.99
2023-01-19T23:33:47.866Z,76.11
2023-01-19T23:38:54.422Z,76.21
2023-01-19T23:43:58.301Z,75.98
2023-01-19T23:49:04.697Z,76.36
2023-01-19T23:54:08.847Z,76.18
2023-01-19T23:59:17.184Z,75.78
